Time;durP1;ratioP1;P1;durP2;ratioP2;P2;SDS_P1;SDS_P2;PMS_P1;PMS_P2;Temp;Humidity;BMP_temperature;BMP_pressure;BME280_temperature;BME280_humidity;BME280_pressure;Samples;Min_cycle;Max_cycle;Signal;HPM_P1;HPM_P2
2023/03/03 00:01:09;;;;;;;77.75;29.17;;;;;;;3.36;61.07;99364.34;5162828;28;20046;-68
2023/03/03 00:03:59;;;;;;;84.13;30.58;;;;;;;3.34;60.96;99371.47;5162926;28;20464;-68
2023/03/03 00:06:49;;;;;;;80.00;30.75;;;;;;;3.05;61.61;99335.53;5163357;28;20476;-68
2023/03/03 00:09:40;;;;;;;75.45;28.83;;;;;;;3.22;60.60;99373.88;5162495;28;20046;-68
2023/03/03 00:12:30;;;;;;;86.85;31.48;;;;;;;3.28;61.40;99357.78;5147775;28;20046;-68
2023/03/03 00:15:23;;;;;;;86.50;32.97;;;;;;;3.23;61.92;99354.56;5163121;28;20136;-67
2023/03/03 00:18:21;;;;;;;77.25;30.85;;;;;;;3.17;61.83;99367.19;5162591;28;20050;-68
2023/03/03 00:21:38;;;;;;;84.47;29.52;;;;;;;3.01;60.85;99367.22;5133961;28;20121;-68
2023/03/03 00:24:36;;;;;;;84.32;31.65;;;;;;;3.00;61.95;99362.91;5148015;28;20648;-68
2023/03/03 00:27:30;;;;;;;81.30;31.67;;;;;;;3.17;61.85;99368.03;5147569;28;20061;-67
2023/03/03 00:30:25;;;;;;;81.75;31.17;;;;;;;3.03;62.40;99368.81;5149405;28;20054;-67
2023/03/03 00:33:31;;;;;;;81.95;31.83;;;;;;;2.91;62.14;99372.13;5162730;28;20089;-69
2023/03/03 00:36:30;;;;;;;84.18;31.25;;;;;;;2.83;61.61;99369.94;5155468;28;20669;-67
2023/03/03 00:39:25;;;;;;;81.00;30.48;;;;;;;2.85;62.14;99372.50;5162310;28;20054;-67
2023/03/03 00:42:17;;;;;;;91.60;33.10;;;;;;;2.98;62.21;99356.91;5162047;28;20050;-70
2023/03/03 00:45:57;;;;;;;99.35;35.63;;;;;;;2.99;62.19;99367.31;5162271;28;20062;-70
2023/03/03 00:48:49;;;;;;;91.20;32.83;;;;;;;2.88;62.50;99358.34;5098421;29;20099;-70
2023/03/03 00:51:42;;;;;;;80.57;32.08;;;;;;;2.65;61.75;99364.88;5174775;28;20046;-67
2023/03/03 00:54:33;;;;;;;85.50;32.40;;;;;;;2.54;61.28;99365.47;5162432;28;20054;-70
2023/03/03 00:57:23;;;;;;;75.35;30.67;;;;;;;2.63;61.35;99370.22;5161470;28;20089;-67
2023/03/03 01:00:14;;;;;;;91.75;31.65;;;;;;;2.81;61.79;99369.22;5136578;28;20156;-67
2023/03/03 01:03:07;;;;;;;84.75;32.83;;;;;;;2.38;61.73;99355.00;5157075;28;20050;-67
2023/03/03 01:05:57;;;;;;;78.63;30.60;;;;;;;2.02;62.00;99302.88;5136389;28;20054;-69
2023/03/03 01:08:48;;;;;;;86.65;30.95;;;;;;;2.35;62.29;99363.88;5166333;28;20199;-69
2023/03/03 01:11:38;;;;;;;89.93;32.10;;;;;;;2.58;62.35;99362.63;5166143;28;20082;-70
2023/03/03 01:14:28;;;;;;;83.47;32.17;;;;;;;2.55;62.71;99361.91;5166396;28;20050;-69
2023/03/03 01:17:19;;;;;;;81.68;31.42;;;;;;;2.57;62.57;99357.47;5165620;28;20062;-69
2023/03/03 01:20:12;;;;;;;90.70;32.60;;;;;;;2.54;62.32;99355.00;5165915;28;20081;-69
2023/03/03 01:23:03;;;;;;;90.00;31.92;;;;;;;2.42;62.70;99351.31;5165962;28;20426;-69
2023/03/03 01:25:53;;;;;;;91.05;32.53;;;;;;;2.33;62.42;99352.63;5165506;28;20065;-69
2023/03/03 01:28:43;;;;;;;82.55;31.35;;;;;;;2.17;63.00;99362.25;5151634;28;20061;-69
2023/03/03 01:31:34;;;;;;;83.47;30.67;;;;;;;2.04;62.92;99359.44;5166688;28;20062;-69
2023/03/03 01:34:24;;;;;;;89.32;32.63;;;;;;;2.18;63.23;99363.91;5166211;28;20058;-69
2023/03/03 01:37:14;;;;;;;83.30;30.52;;;;;;;2.20;62.87;99367.31;5137122;28;20057;-69
2023/03/03 01:40:07;;;;;;;78.75;30.80;;;;;;;2.09;63.49;99367.03;5152138;28;20058;-69
2023/03/03 01:42:59;;;;;;;82.13;31.65;;;;;;;2.12;63.38;99366.88;5150699;28;20077;-69
2023/03/03 01:45:50;;;;;;;94.50;32.88;;;;;;;2.16;63.73;99370.19;5144084;28;20065;-69
2023/03/03 01:48:44;;;;;;;90.13;32.65;;;;;;;2.11;63.22;99355.56;5158996;28;20106;-69
2023/03/03 01:51:41;;;;;;;87.77;32.53;;;;;;;2.19;63.45;99354.31;5149962;28;20139;-69
2023/03/03 01:54:52;;;;;;;86.85;32.88;;;;;;;2.23;64.13;99351.44;5150881;28;20700;-69
2023/03/03 01:57:47;;;;;;;99.65;33.67;;;;;;;2.32;63.39;99350.13;5149195;28;20520;-69
2023/03/03 02:00:40;;;;;;;87.43;32.80;;;;;;;2.32;63.82;99348.34;5137137;28;20523;-69
2023/03/03 02:03:32;;;;;;;92.68;34.25;;;;;;;2.00;64.22;99342.22;5165190;28;20057;-69
2023/03/03 02:06:26;;;;;;;89.70;32.05;;;;;;;1.90;63.84;99337.56;5164741;28;20056;-69
2023/03/03 02:09:26;;;;;;;;;;;;;;;1.92;63.52;99335.69;5150698;28;20057;-69
2023/03/03 02:12:19;;;;;;;78.75;30.13;;;;;;;2.02;63.49;99344.72;5164025;28;20004;-69
2023/03/03 02:15:16;;;;;;;89.93;32.20;;;;;;;1.96;63.90;99338.06;5164934;28;20133;-69
2023/03/03 02:18:13;;;;;;;84.88;30.38;;;;;;;1.95;62.98;99346.00;5161404;28;20803;-68
2023/03/03 02:21:11;;;;;;;88.03;31.95;;;;;;;1.95;64.29;99346.00;5150169;28;20489;-69
2023/03/03 02:24:05;;;;;;;86.70;31.58;;;;;;;2.04;64.28;99350.75;5149542;28;20066;-68
2023/03/03 02:26:56;;;;;;;92.90;33.47;;;;;;;2.06;64.37;99346.28;5149337;28;20062;-69
2023/03/03 02:29:46;;;;;;;93.47;32.95;;;;;;;1.98;64.01;99345.81;5163674;28;20105;-69
2023/03/03 02:32:36;;;;;;;83.30;32.22;;;;;;;1.78;64.00;99337.25;5164448;28;20050;-69
2023/03/03 02:35:35;;;;;;;84.90;31.92;;;;;;;1.67;63.41;99343.97;5143507;28;20061;-69
2023/03/03 02:38:46;;;;;;;86.75;33.17;;;;;;;1.54;63.77;99354.22;5162584;28;20632;-69
2023/03/03 02:42:09;;;;;;;87.75;31.95;;;;;;;1.75;65.12;99360.94;5149237;28;20058;-69
2023/03/03 02:45:05;;;;;;;81.18;30.95;;;;;;;1.65;65.54;99344.88;5163493;28;20103;-69
2023/03/03 02:47:55;;;;;;;94.22;32.28;;;;;;;1.69;64.32;99340.38;5164128;28;20162;-69
2023/03/03 02:50:46;;;;;;;90.78;31.55;;;;;;;1.74;64.68;99350.56;5149230;28;20056;-69
2023/03/03 02:53:36;;;;;;;84.47;32.30;;;;;;;1.40;65.40;99341.84;5164362;28;20073;-69
2023/03/03 02:56:26;;;;;;;81.75;31.48;;;;;;;1.62;65.28;99355.53;5163971;28;20520;-69
2023/03/03 02:59:17;;;;;;;84.22;31.60;;;;;;;1.63;65.11;99361.59;5163653;28;20124;-69
2023/03/03 03:02:11;;;;;;;87.30;30.38;;;;;;;1.56;65.54;99355.00;5136053;28;20637;-69
2023/03/03 03:05:01;;;;;;;86.57;30.52;;;;;;;1.45;66.68;99357.28;5140005;28;20065;-69
2023/03/03 03:07:51;;;;;;;76.05;29.00;;;;;;;1.57;65.00;99352.28;5144446;28;20062;-69
2023/03/03 03:10:42;;;;;;;86.93;31.08;;;;;;;1.51;65.09;99341.31;5176203;28;20417;-69
2023/03/03 03:13:33;;;;;;;83.22;29.50;;;;;;;1.36;65.52;99354.22;5163353;28;20117;-68
2023/03/03 03:16:24;;;;;;;82.97;29.92;;;;;;;1.36;65.40;99359.47;5148719;28;20410;-69
2023/03/03 03:19:14;;;;;;;77.93;29.70;;;;;;;1.43;64.59;99356.53;5163595;28;20066;-69
2023/03/03 03:22:06;;;;;;;81.13;31.63;;;;;;;1.40;64.35;99368.81;5135192;28;20177;-69
2023/03/03 03:24:57;;;;;;;86.68;31.83;;;;;;;1.41;64.98;99367.06;5148568;28;20429;-69
2023/03/03 03:27:48;;;;;;;78.13;30.80;;;;;;;1.43;65.07;99372.22;5147734;28;20054;-69
2023/03/03 03:30:39;;;;;;;91.88;32.08;;;;;;;1.36;64.75;99369.91;5163605;28;20161;-69
2023/03/03 03:33:30;;;;;;;85.50;30.90;;;;;;;1.28;65.34;99371.19;5149454;28;20096;-69
2023/03/03 03:36:22;;;;;;;93.47;30.77;;;;;;;1.21;65.44;99347.16;5136312;28;20136;-70
2023/03/03 03:39:13;;;;;;;86.55;32.05;;;;;;;1.21;64.49;99352.38;5148944;28;20648;-69
2023/03/03 03:42:07;;;;;;;81.03;29.60;;;;;;;0.80;65.58;99364.84;5133623;28;20582;-69
2023/03/03 03:44:58;;;;;;;82.63;30.80;;;;;;;0.92;65.25;99370.31;5148941;28;20120;-69
2023/03/03 03:47:49;;;;;;;83.95;31.02;;;;;;;1.17;64.79;99369.97;5148077;28;20161;-69
2023/03/03 03:50:39;;;;;;;88.90;31.73;;;;;;;1.01;64.84;99369.03;5141944;28;20058;-69
2023/03/03 03:53:30;;;;;;;79.55;30.27;;;;;;;0.96;64.12;99359.72;5158257;28;20062;-69
2023/03/03 03:56:20;;;;;;;80.68;29.88;;;;;;;0.84;65.18;99354.19;5135397;28;20104;-69
2023/03/03 03:59:14;;;;;;;87.05;31.27;;;;;;;0.95;65.57;99366.72;5175205;28;20053;-69
2023/03/03 04:02:05;;;;;;;86.35;31.13;;;;;;;1.03;64.95;99363.75;5161064;28;20053;-69
2023/03/03 04:04:55;;;;;;;90.22;32.30;;;;;;;0.96;65.95;99365.81;5148668;28;20069;-69
2023/03/03 04:07:46;;;;;;;89.53;30.98;;;;;;;0.94;65.16;99367.63;5162638;28;20053;-69
2023/03/03 04:10:38;;;;;;;90.25;32.10;;;;;;;0.66;66.79;99362.88;5142237;28;20436;-69
2023/03/03 04:13:30;;;;;;;82.20;32.17;;;;;;;0.89;65.45;99367.88;5142246;28;20057;-69
2023/03/03 04:16:22;;;;;;;84.30;30.23;;;;;;;1.02;66.09;99369.88;5135065;28;20072;-69
2023/03/03 04:19:13;;;;;;;81.18;32.15;;;;;;;1.09;66.58;99374.72;5174893;28;20416;-70
2023/03/03 04:22:05;;;;;;;88.05;32.10;;;;;;;1.27;66.68;99378.19;5161320;28;20054;-70
2023/03/03 04:24:56;;;;;;;94.57;33.88;;;;;;;1.45;65.81;99370.34;5164520;28;20055;-69
2023/03/03 04:27:47;;;;;;;85.70;32.75;;;;;;;1.31;65.93;99361.44;5158243;28;20428;-70
2023/03/03 04:30:39;;;;;;;84.28;32.30;;;;;;;1.32;66.38;99367.50;5147831;28;20050;-69
2023/03/03 04:33:30;;;;;;;90.80;33.10;;;;;;;1.51;66.26;99383.13;5161638;28;20112;-68
2023/03/03 04:36:22;;;;;;;84.40;31.75;;;;;;;1.69;65.62;99389.16;5133749;28;20076;-67
2023/03/03 04:39:13;;;;;;;91.22;32.85;;;;;;;1.62;67.09;99381.66;5174130;28;20595;-67
2023/03/03 04:42:03;;;;;;;90.22;32.45;;;;;;;1.75;66.76;99392.31;5161149;28;20054;-67
2023/03/03 04:44:54;;;;;;;89.47;32.53;;;;;;;1.70;67.68;99386.50;5147957;28;20050;-68
2023/03/03 04:47:44;;;;;;;87.57;32.97;;;;;;;1.73;66.85;99377.66;5141054;28;20134;-67
2023/03/03 04:50:35;;;;;;;87.30;34.22;;;;;;;1.84;67.12;99391.00;5140905;28;20065;-67
2023/03/03 04:53:26;;;;;;;87.70;33.70;;;;;;;1.87;67.00;99376.00;5155375;28;20126;-68
2023/03/03 04:56:16;;;;;;;90.72;33.22;;;;;;;2.21;65.62;99389.91;5161092;28;20446;-68
2023/03/03 04:59:07;;;;;;;85.72;31.95;;;;;;;1.82;67.47;99388.50;5154555;28;20109;-67
2023/03/03 05:01:58;;;;;;;88.22;32.03;;;;;;;2.05;66.03;99384.69;5168752;28;20057;-67
2023/03/03 05:04:48;;;;;;;100.15;32.28;;;;;;;2.07;66.36;99385.41;5161049;28;20061;-68
2023/03/03 05:07:39;;;;;;;86.43;32.53;;;;;;;2.15;65.83;99398.09;5161778;28;20054;-67
2023/03/03 05:10:29;;;;;;;85.82;31.95;;;;;;;1.96;67.14;99379.91;5162253;28;20193;-68
2023/03/03 05:13:20;;;;;;;88.10;33.28;;;;;;;2.27;66.17;99392.22;5162255;28;20509;-68
2023/03/03 05:16:10;;;;;;;92.10;34.72;;;;;;;2.23;65.73;99397.69;5161723;28;20616;-68
2023/03/03 05:19:00;;;;;;;85.95;33.08;;;;;;;2.15;66.24;99389.41;5162016;28;20505;-67
2023/03/03 05:21:50;;;;;;;88.88;32.90;;;;;;;2.22;66.73;99399.47;5161626;28;20563;-68
2023/03/03 05:24:41;;;;;;;91.28;32.38;;;;;;;2.22;65.59;99382.91;5162042;28;20053;-68
2023/03/03 05:27:31;;;;;;;89.95;34.53;;;;;;;2.20;65.99;99393.47;5161608;28;20120;-67
2023/03/03 05:30:22;;;;;;;93.10;33.13;;;;;;;2.00;67.40;99406.75;5162000;28;20064;-67
2023/03/03 05:33:14;;;;;;;90.47;34.15;;;;;;;2.20;67.21;99417.00;5161700;28;20058;-68
2023/03/03 05:36:05;;;;;;;88.00;34.45;;;;;;;1.99;68.11;99418.16;5161388;28;20100;-68
2023/03/03 05:38:55;;;;;;;94.53;33.35;;;;;;;2.28;66.70;99416.59;5161611;28;20058;-67
2023/03/03 05:41:45;;;;;;;85.07;33.70;;;;;;;2.26;67.54;99411.47;5161591;28;20061;-68
2023/03/03 05:44:35;;;;;;;87.32;35.38;;;;;;;2.30;66.68;99430.47;5159324;28;20077;-68
2023/03/03 05:47:25;;;;;;;90.93;34.05;;;;;;;2.35;66.07;99418.84;5147097;28;20050;-68
2023/03/03 05:50:17;;;;;;;84.72;32.92;;;;;;;2.52;66.13;99430.19;5163109;28;20500;-68
2023/03/03 05:53:08;;;;;;;90.47;32.95;;;;;;;2.50;65.61;99426.78;5168699;28;20073;-68
2023/03/03 05:55:58;;;;;;;82.55;32.08;;;;;;;2.49;65.35;99425.09;5166538;28;20093;-68
2023/03/03 05:58:48;;;;;;;86.75;32.90;;;;;;;2.44;64.70;99414.03;5150461;28;20057;-68
2023/03/03 06:01:38;;;;;;;91.20;32.72;;;;;;;2.39;64.64;99424.75;5165617;28;20196;-68
2023/03/03 06:04:28;;;;;;;89.10;32.58;;;;;;;2.45;65.20;99424.44;5165318;28;20057;-68
2023/03/03 06:07:18;;;;;;;87.57;33.42;;;;;;;2.60;64.14;99435.81;5165099;28;20120;-68
2023/03/03 06:10:09;;;;;;;84.80;33.80;;;;;;;2.63;64.73;99437.44;5163863;28;20120;-68
2023/03/03 06:13:01;;;;;;;86.00;33.38;;;;;;;2.52;64.78;99419.69;5149144;28;20555;-68
2023/03/03 06:15:52;;;;;;;87.05;33.03;;;;;;;2.67;65.54;99439.81;5165048;28;20757;-68
2023/03/03 06:18:42;;;;;;;87.47;31.95;;;;;;;2.50;64.83;99432.84;5164817;28;20053;-69
2023/03/03 06:21:33;;;;;;;83.22;32.50;;;;;;;2.51;64.63;99436.31;5164716;28;20061;-66
2023/03/03 06:24:25;;;;;;;85.57;32.22;;;;;;;2.70;64.49;99454.50;5176458;28;20117;-67
2023/03/03 06:27:15;;;;;;;82.60;32.58;;;;;;;2.66;64.67;99458.22;5149631;28;20054;-68
2023/03/03 06:30:06;;;;;;;87.50;34.55;;;;;;;2.53;66.41;99455.41;5164910;28;20058;-69
2023/03/03 06:32:56;;;;;;;105.65;39.00;;;;;;;2.70;65.33;99460.59;5164821;28;20046;-68
2023/03/03 06:35:52;;;;;;;106.95;42.42;;;;;;;2.82;65.04;99466.94;5164469;28;20081;-68
2023/03/03 06:38:43;;;;;;;100.80;38.83;;;;;;;2.77;65.37;99466.34;5164693;28;20631;-67
2023/03/03 06:41:33;;;;;;;91.10;34.60;;;;;;;2.62;66.11;99452.31;5164424;28;20125;-67
2023/03/03 06:44:23;;;;;;;82.38;33.03;;;;;;;2.67;67.13;99471.22;5149853;28;20177;-68
2023/03/03 06:47:17;;;;;;;86.03;32.80;;;;;;;2.40;67.13;99459.59;5164100;28;20089;-68
2023/03/03 06:50:11;;;;;;;95.78;35.13;;;;;;;2.58;66.13;99461.22;5164206;28;20061;-68
2023/03/03 06:53:13;;;;;;;93.47;33.28;;;;;;;2.94;65.58;99463.63;5163517;28;20497;-68
2023/03/03 06:56:07;;;;;;;88.75;33.03;;;;;;;2.90;65.36;99474.38;5162543;28;20084;-67
2023/03/03 06:58:59;;;;;;;92.38;34.13;;;;;;;2.93;65.49;99468.97;5161330;28;20049;-67
2023/03/03 07:01:50;;;;;;;90.32;33.38;;;;;;;3.11;65.02;99483.66;5145576;28;20212;-67
2023/03/03 07:04:40;;;;;;;92.10;34.00;;;;;;;3.35;64.31;99483.25;5161809;28;20057;-67
2023/03/03 07:07:30;;;;;;;91.47;34.55;;;;;;;3.35;64.14;99454.41;5161755;28;20427;-67
2023/03/03 07:10:26;;;;;;;94.10;34.97;;;;;;;3.41;65.33;99482.88;5162109;28;20064;-66
2023/03/03 07:13:23;;;;;;;76.25;31.85;;;;;;;3.43;64.63;99486.28;5161485;28;20176;-66
2023/03/03 07:16:16;;;;;;;90.18;35.72;;;;;;;3.47;64.86;99466.81;5154497;28;20055;-67
2023/03/03 07:19:25;;;;;;;91.57;36.50;;;;;;;3.50;65.00;99496.31;5143351;28;20509;-70
2023/03/03 07:22:17;;;;;;;87.55;34.97;;;;;;;3.68;63.53;99488.34;5137545;28;20285;-71
2023/03/03 07:25:20;;;;;;;88.00;32.63;;;;;;;3.64;64.10;99482.44;5126592;28;20057;-67
2023/03/03 07:28:28;;;;;;;96.88;35.47;;;;;;;4.00;63.03;99489.91;5146554;28;20109;-67
2023/03/03 07:31:46;;;;;;;85.53;33.47;;;;;;;4.01;62.01;99490.78;5144535;28;20100;-67
2023/03/03 07:34:45;;;;;;;81.07;31.63;;;;;;;4.18;60.94;99490.63;5148509;28;20428;-67
2023/03/03 07:37:37;;;;;;;78.35;31.08;;;;;;;4.02;61.48;99504.75;5144679;28;20066;-67
2023/03/03 07:40:37;;;;;;;86.30;32.85;;;;;;;4.11;61.48;99514.72;5148352;28;20054;-67
2023/03/03 07:43:38;;;;;;;78.93;30.13;;;;;;;4.42;60.49;99511.94;5144216;28;20618;-68
2023/03/03 07:46:43;;;;;;;81.97;29.33;;;;;;;4.67;59.57;99513.94;5133391;28;20069;-67
2023/03/03 07:49:36;;;;;;;81.90;30.83;;;;;;;5.15;57.91;99503.94;5120456;28;20065;-68
2023/03/03 07:52:40;;;;;;;73.90;29.35;;;;;;;5.58;58.08;99518.75;5146961;28;20058;-68
2023/03/03 07:55:36;;;;;;;75.60;28.95;;;;;;;6.26;56.27;99517.81;5141182;28;20062;-68
2023/03/03 07:58:39;;;;;;;79.03;29.15;;;;;;;5.60;56.72;99520.34;5141011;28;20148;-68
2023/03/03 08:01:38;;;;;;;69.05;28.98;;;;;;;6.24;55.11;99519.69;5157447;28;20050;-67
2023/03/03 08:04:51;;;;;;;70.05;28.52;;;;;;;6.44;53.99;99513.06;5149251;28;20057;-68
2023/03/03 08:07:41;;;;;;;76.53;28.23;;;;;;;7.41;53.35;99507.09;5149811;28;20987;-68
2023/03/03 08:10:57;;;;;;;62.80;27.23;;;;;;;6.69;53.15;99510.44;5150162;28;20491;-68
2023/03/03 08:13:47;;;;;;;70.82;27.15;;;;;;;6.73;53.25;99505.78;5155435;28;20054;-68
2023/03/03 08:16:37;;;;;;;70.35;26.80;;;;;;;7.18;52.36;99512.22;5149363;28;20050;-67
2023/03/03 08:19:30;;;;;;;62.78;27.02;;;;;;;7.20;51.66;99518.25;5148129;28;20077;-67
2023/03/03 08:22:36;;;;;;;62.22;26.60;;;;;;;7.75;51.38;99516.06;5147666;28;20089;-67
2023/03/03 08:25:26;;;;;;;57.95;26.83;;;;;;;7.34;51.33;99485.59;5126254;28;20099;-67
2023/03/03 08:28:17;;;;;;;56.72;25.42;;;;;;;8.77;49.07;99520.66;5152126;28;20053;-67
2023/03/03 08:31:07;;;;;;;54.88;23.48;;;;;;;7.35;49.78;99502.25;5144911;28;20161;-67
2023/03/03 08:34:11;;;;;;;54.77;23.57;;;;;;;8.30;48.79;99505.78;5136942;28;20061;-67
2023/03/03 08:37:01;;;;;;;49.50;23.27;;;;;;;9.03;47.70;99499.25;5143818;28;20137;-68
2023/03/03 08:39:51;;;;;;;50.65;23.83;;;;;;;9.85;45.90;99511.09;5141491;28;20138;-67
2023/03/03 08:42:41;;;;;;;55.53;25.02;;;;;;;9.67;45.45;99514.41;5144104;28;20061;-67
2023/03/03 08:45:32;;;;;;;56.65;24.90;;;;;;;10.01;45.31;99517.78;5163407;28;20844;-68
2023/03/03 08:48:24;;;;;;;52.20;24.00;;;;;;;10.02;45.63;99517.63;5152891;28;20066;-67
2023/03/03 08:51:14;;;;;;;53.83;25.00;;;;;;;9.51;45.23;99517.47;5126193;28;20042;-68
2023/03/03 08:54:04;;;;;;;54.10;24.23;;;;;;;9.34;47.00;99516.19;5149638;28;20046;-68
2023/03/03 08:56:54;;;;;;;58.45;24.20;;;;;;;9.36;45.68;99538.06;5135578;28;20092;-69
2023/03/03 08:59:46;;;;;;;52.65;24.67;;;;;;;9.54;47.09;99520.72;5146043;28;20054;-68
2023/03/03 09:02:37;;;;;;;53.20;24.48;;;;;;;9.65;46.82;99528.63;5146759;28;20054;-68
2023/03/03 09:05:27;;;;;;;55.60;24.85;;;;;;;8.35;48.37;99532.72;5142863;28;20064;-68
2023/03/03 09:08:17;;;;;;;54.47;26.13;;;;;;;9.34;48.29;99529.41;5140335;28;20145;-68
2023/03/03 09:11:19;;;;;;;56.17;25.83;;;;;;;9.20;48.11;99527.00;5146616;28;21050;-71
2023/03/03 09:14:12;;;;;;;52.15;24.30;;;;;;;9.50;46.62;99529.00;5145681;28;20698;-67
2023/03/03 09:17:26;;;;;;;57.30;24.75;;;;;;;9.17;46.95;99538.69;5133786;28;20552;-68
2023/03/03 09:20:32;;;;;;;56.00;24.83;;;;;;;10.03;45.88;99534.38;5145925;28;20127;-68
2023/03/03 09:23:23;;;;;;;53.15;24.23;;;;;;;10.12;46.78;99544.22;5135107;28;20054;-68
2023/03/03 09:26:38;;;;;;;61.13;25.70;;;;;;;11.48;44.73;99543.13;5131832;28;20112;-68
2023/03/03 09:29:36;;;;;;;53.30;24.35;;;;;;;12.33;41.51;99541.69;5166861;28;20058;-68
2023/03/03 09:32:33;;;;;;;52.00;25.42;;;;;;;11.67;42.93;99528.22;5146231;28;20428;-68
2023/03/03 09:35:39;;;;;;;52.20;23.52;;;;;;;11.63;43.46;99543.59;5159854;28;20598;-68
2023/03/03 09:38:31;;;;;;;50.72;23.42;;;;;;;10.55;44.45;99530.88;5154821;28;20065;-67
2023/03/03 09:41:36;;;;;;;47.35;23.90;;;;;;;9.85;45.56;99540.22;5156340;28;20072;-67
2023/03/03 09:44:49;;;;;;;51.28;23.60;;;;;;;9.92;45.68;99542.38;5149477;28;20402;-67
2023/03/03 09:48:10;;;;;;;56.75;25.13;;;;;;;9.92;44.39;99539.72;5140529;28;20058;-67
2023/03/03 09:51:03;;;;;;;52.92;25.13;;;;;;;9.14;45.67;99546.88;5127480;28;20073;-67
2023/03/03 09:54:01;;;;;;;51.50;24.85;;;;;;;9.17;45.96;99551.91;5140340;28;20714;-67
2023/03/03 09:57:16;;;;;;;52.92;24.98;;;;;;;8.96;46.87;99553.59;5145229;28;20527;-67
2023/03/03 10:00:40;;;;;;;56.35;25.60;;;;;;;8.49;48.55;99560.75;5155567;28;20516;-67
2023/03/03 10:04:27;;;;;;;57.33;24.23;;;;;;;8.84;48.08;99558.03;5156087;28;20615;-67
2023/03/03 10:07:33;;;;;;;55.40;25.25;;;;;;;8.26;48.56;99542.16;5141079;28;20131;-67
2023/03/03 10:10:59;;;;;;;52.65;24.75;;;;;;;8.79;49.31;99547.81;5139771;28;20440;-67
2023/03/03 10:13:59;;;;;;;53.72;25.35;;;;;;;8.85;48.02;99552.63;5131332;28;20092;-67
2023/03/03 10:17:25;;;;;;;58.92;26.27;;;;;;;8.87;48.51;99552.50;5151495;28;20108;-67
2023/03/03 10:20:25;;;;;;;52.90;24.45;;;;;;;8.81;47.91;99551.19;5122422;28;20101;-68
2023/03/03 10:23:36;;;;;;;57.90;24.83;;;;;;;9.08;48.30;99542.06;5139881;28;20084;-67
2023/03/03 10:27:03;;;;;;;52.45;24.42;;;;;;;9.17;47.23;99531.59;5153958;28;20566;-67
2023/03/03 10:30:16;;;;;;;57.15;23.40;;;;;;;9.80;45.27;99537.13;5146778;28;20070;-67
2023/03/03 10:33:41;;;;;;;53.42;24.00;;;;;;;10.01;44.80;99538.97;5141408;28;20151;-67
2023/03/03 10:37:05;;;;;;;46.75;21.80;;;;;;;9.62;45.82;99541.25;5146236;28;20380;-67
2023/03/03 10:40:04;;;;;;;56.60;25.00;;;;;;;9.78;47.71;99541.69;5134997;28;20066;-67
2023/03/03 10:43:30;;;;;;;48.67;24.17;;;;;;;10.30;44.65;99531.28;5144466;28;20582;-67
2023/03/03 10:46:36;;;;;;;45.65;21.83;;;;;;;10.08;45.47;99545.44;5147249;28;20902;-67
2023/03/03 10:49:52;;;;;;;45.83;23.17;;;;;;;9.96;47.40;99546.44;5144187;28;20831;-67
2023/03/03 10:52:51;;;;;;;47.42;22.55;;;;;;;10.55;45.50;99538.00;5158193;28;20596;-67
2023/03/03 10:56:09;;;;;;;47.08;21.80;;;;;;;10.11;46.91;99540.72;5149638;28;20054;-67
2023/03/03 10:59:14;;;;;;;48.45;23.00;;;;;;;10.13;45.34;99532.63;5147388;28;20061;-67
2023/03/03 11:02:21;;;;;;;45.63;21.88;;;;;;;10.32;45.70;99535.47;5154731;28;20500;-67
2023/03/03 11:05:26;;;;;;;41.60;21.45;;;;;;;9.79;46.61;99543.38;5157507;28;20050;-67
2023/03/03 11:08:41;;;;;;;46.33;21.40;;;;;;;9.97;45.54;99543.69;5152190;28;20532;-67
2023/03/03 11:11:57;;;;;;;41.92;21.77;;;;;;;10.09;44.70;99552.41;5149152;28;20077;-67
2023/03/03 11:14:54;;;;;;;47.88;21.98;;;;;;;10.40;46.31;99555.19;5150597;28;20544;-67
2023/03/03 11:18:02;;;;;;;40.13;20.38;;;;;;;9.57;47.33;99551.38;5159302;28;20125;-67
2023/03/03 11:21:21;;;;;;;40.63;20.30;;;;;;;9.32;46.49;99505.72;5145731;28;20361;-67
2023/03/03 11:24:15;;;;;;;44.92;20.90;;;;;;;9.99;46.44;99540.91;5134611;28;20497;-67
2023/03/03 11:27:17;;;;;;;41.63;20.97;;;;;;;10.05;45.41;99516.56;5142104;28;20077;-67
2023/03/03 11:30:28;;;;;;;45.55;21.42;;;;;;;9.82;45.55;99540.47;5154046;28;20062;-67
2023/03/03 11:33:31;;;;;;;47.45;20.67;;;;;;;10.07;45.21;99527.88;5150143;28;20050;-67
2023/03/03 11:36:30;;;;;;;44.83;20.98;;;;;;;9.08;46.76;99531.50;5147490;28;20148;-67
2023/03/03 11:39:28;;;;;;;44.72;20.88;;;;;;;10.04;45.03;99538.72;5152540;28;20103;-67
2023/03/03 11:43:02;;;;;;;40.30;21.45;;;;;;;10.38;45.04;99530.63;5132435;28;20050;-67
2023/03/03 11:46:02;;;;;;;51.35;22.65;;;;;;;10.25;44.57;99498.97;5077243;28;20083;-66
2023/03/03 11:49:18;;;;;;;46.25;21.63;;;;;;;9.75;44.72;99523.41;5163295;28;20517;-67
2023/03/03 11:52:26;;;;;;;48.85;22.48;;;;;;;10.55;44.64;99512.31;5144770;28;20061;-68
2023/03/03 11:55:21;;;;;;;49.13;22.55;;;;;;;9.33;45.56;99502.09;5146200;28;20053;-67
2023/03/03 11:58:41;;;;;;;48.53;22.23;;;;;;;9.05;46.27;99502.63;5150770;28;20051;-67
2023/03/03 12:01:40;;;;;;;47.00;21.35;;;;;;;9.23;46.17;99495.84;5138407;28;20443;-67
2023/03/03 12:04:37;;;;;;;47.25;21.58;;;;;;;9.47;46.01;99503.66;5157207;28;20077;-67
2023/03/03 12:07:49;;;;;;;43.85;21.60;;;;;;;8.83;46.79;99503.47;5149263;28;20060;-67
2023/03/03 12:11:02;;;;;;;51.40;21.95;;;;;;;9.70;45.86;99506.22;5150068;28;20069;-67
2023/03/03 12:14:07;;;;;;;51.53;22.67;;;;;;;9.19;45.46;99505.00;5151292;28;20097;-67
2023/03/03 12:17:14;;;;;;;49.00;22.48;;;;;;;10.17;44.96;99501.44;5155180;28;20432;-67
2023/03/03 12:20:11;;;;;;;49.08;21.63;;;;;;;9.47;46.03;99503.66;5156984;28;20066;-67
2023/03/03 12:23:13;;;;;;;50.55;23.70;;;;;;;9.46;45.64;99493.16;5161935;28;20050;-67
2023/03/03 12:26:07;;;;;;;50.85;24.10;;;;;;;9.61;46.37;99499.88;5166870;28;20459;-67
2023/03/03 12:29:11;;;;;;;49.20;22.67;;;;;;;10.57;43.70;99483.03;5157533;28;20049;-67
2023/03/03 12:32:13;;;;;;;47.33;22.50;;;;;;;10.39;43.00;99480.13;5157337;28;20189;-67
2023/03/03 12:35:19;;;;;;;47.92;22.58;;;;;;;10.69;43.17;99481.13;5150090;28;20786;-67
2023/03/03 12:38:28;;;;;;;47.35;22.73;;;;;;;9.75;45.28;99488.97;5156506;28;20054;-67
2023/03/03 12:41:34;;;;;;;50.83;22.85;;;;;;;9.52;45.63;99480.28;5161193;28;20057;-67
2023/03/03 12:44:53;;;;;;;50.92;23.30;;;;;;;10.26;44.73;99475.03;5162217;28;20053;-68
2023/03/03 12:47:49;;;;;;;48.92;23.02;;;;;;;9.86;46.18;99473.03;5133159;28;20074;-67
2023/03/03 12:51:14;;;;;;;48.60;23.38;;;;;;;10.28;44.21;99478.38;5162241;28;20160;-67
2023/03/03 12:54:20;;;;;;;50.85;23.85;;;;;;;10.55;43.78;99469.06;5146427;28;20672;-68
2023/03/03 12:57:33;;;;;;;46.25;22.20;;;;;;;10.08;44.73;99460.66;5160735;28;20543;-68
2023/03/03 13:00:58;;;;;;;49.22;24.95;;;;;;;9.91;45.31;99470.03;5160329;28;20153;-70
2023/03/03 13:03:59;;;;;;;54.05;23.17;;;;;;;10.67;43.92;99473.31;5141114;28;20083;-69
2023/03/03 13:07:10;;;;;;;47.88;23.70;;;;;;;11.01;43.87;99467.69;5161402;28;20096;-67
2023/03/03 13:10:30;;;;;;;56.85;23.90;;;;;;;9.99;45.02;99470.19;5159332;28;20069;-67
2023/03/03 13:13:38;;;;;;;49.08;23.13;;;;;;;10.64;43.70;99465.63;5159332;28;20717;-68
2023/03/03 13:16:38;;;;;;;52.05;24.15;;;;;;;10.97;43.32;99468.94;5160946;28;20417;-69
2023/03/03 13:19:47;;;;;;;50.75;23.75;;;;;;;10.70;43.94;99456.28;5160232;28;20135;-68
2023/03/03 13:22:47;;;;;;;49.45;23.40;;;;;;;10.49;44.33;99461.63;5160748;28;20089;-70
2023/03/03 13:25:50;;;;;;;59.10;24.35;;;;;;;10.08;45.05;99465.94;5159453;28;20085;-67
2023/03/03 13:28:47;;;;;;;47.83;22.92;;;;;;;10.60;44.56;99466.84;5159649;28;20094;-68
2023/03/03 13:31:43;;;;;;;52.53;23.75;;;;;;;10.56;43.01;99460.97;5158831;28;20065;-69
2023/03/03 13:35:04;;;;;;;49.55;23.38;;;;;;;10.32;43.76;99458.59;5160104;28;20039;-69
2023/03/03 13:37:56;;;;;;;59.47;23.60;;;;;;;10.19;44.84;99452.63;5160302;28;20050;-68
2023/03/03 13:41:04;;;;;;;52.65;24.27;;;;;;;9.62;45.00;99454.72;5159595;28;20046;-68
2023/03/03 13:44:18;;;;;;;50.53;23.70;;;;;;;10.78;42.92;99449.31;5160862;28;20058;-69
2023/03/03 13:47:33;;;;;;;50.45;22.88;;;;;;;10.14;43.76;99441.59;5168871;28;20057;-69